KBEC

Beech Factory Airport

Wichita, Kansas, USA
METAR KBEC 162215Z AUTO 08006KT 1 1/4SM -DZ OVC003 04/03 A3000 RMK AO2 T00360033
Observed Flight Rules
Jan-16 @ 22:15 UTC (15 minutes ago) Instrument Flight Rules
Wind Visibility Clouds Conditions
80° at 6 knots 1 1/4 miles
  • Overcast at 300' AGL
  • Light Drizzle
Temperatures Readings
Current 4°C / 39°F
Dewpoint 3°C / 37°F
Humidity 93%
Altimeter 30" Hg
Pressure 1015.92 hPa
Elevation 429
METAR KBEC 162215Z AUTO 08006KT 1 1/4SM -DZ OVC003 04/03 A3000 RMK AO2 T00360033
Observed Flight Rules
Jan-16 @ 22:15 UTC
(15 minutes ago)
LIFR
Wind Visibility
80° at 6 knots 1 1/4 miles
Clouds
  • Overcast at 300' AGL
Conditions
  • Light Drizzle
Temperature Dewpoint
4°C / 39°F 3°C / 37°F
Humidity Altimeter Pressure
93% 30" Hg 1015.92 hPa